sensor_id;sensor_type;location;lat;lon;timestamp;pressure;altitude;pressure_sealevel;temperature;humidity
68758;BME280;55747;51.998;4.466;2023-02-10T00:01:43;56626.72;;;-144.48;100.00
68758;BME280;55747;51.998;4.466;2023-02-10T00:04:11;56620.50;;;-144.48;100.00
68758;BME280;55747;51.998;4.466;2023-02-10T00:06:36;56622.56;;;-144.48;100.00
68758;BME280;55747;51.998;4.466;2023-02-10T00:09:03;56626.72;;;-144.48;100.00
68758;BME280;55747;51.998;4.466;2023-02-10T00:11:28;56608.09;;;-144.48;100.00
68758;BME280;55747;51.998;4.466;2023-02-10T00:14:15;56610.16;;;-144.48;100.00
68758;BME280;55747;51.998;4.466;2023-02-10T00:16:41;56620.50;;;-144.48;100.00
68758;BME280;55747;51.998;4.466;2023-02-10T00:19:06;56601.91;;;-144.48;100.00
68758;BME280;55747;51.998;4.466;2023-02-10T00:21:32;56639.13;;;-144.48;100.00
68758;BME280;55747;51.998;4.466;2023-02-10T00:23:58;56608.09;;;-144.48;100.00
68758;BME280;55747;51.998;4.466;2023-02-10T00:26:23;56624.63;;;-144.48;100.00
68758;BME280;55747;51.998;4.466;2023-02-10T00:28:51;56645.31;;;-144.48;100.00
68758;BME280;55747;51.998;4.466;2023-02-10T00:31:16;56579.16;;;-144.48;100.00
68758;BME280;55747;51.998;4.466;2023-02-10T00:33:44;56632.91;;;-144.48;100.00
68758;BME280;55747;51.998;4.466;2023-02-10T00:36:11;56637.03;;;-144.48;100.00
68758;BME280;55747;51.998;4.466;2023-02-10T00:38:37;56641.19;;;-144.48;100.00
68758;BME280;55747;51.998;4.466;2023-02-10T00:41:14;56651.50;;;-144.48;100.00
68758;BME280;55747;51.998;4.466;2023-02-10T00:43:40;56674.25;;;-144.48;100.00
68758;BME280;55747;51.998;4.466;2023-02-10T00:46:07;56606.03;;;-144.48;100.00
68758;BME280;55747;51.998;4.466;2023-02-10T00:48:33;56616.38;;;-144.48;100.00
68758;BME280;55747;51.998;4.466;2023-02-10T00:51:02;56657.72;;;-144.48;100.00
68758;BME280;55747;51.998;4.466;2023-02-10T00:53:27;56614.31;;;-144.48;100.00
68758;BME280;55747;51.998;4.466;2023-02-10T00:55:53;56614.31;;;-144.48;100.00
68758;BME280;55747;51.998;4.466;2023-02-10T00:58:18;56647.38;;;-144.48;100.00
68758;BME280;55747;51.998;4.466;2023-02-10T01:00:43;56599.81;;;-144.48;100.00
68758;BME280;55747;51.998;4.466;2023-02-10T01:03:09;56610.16;;;-144.48;100.00
68758;BME280;55747;51.998;4.466;2023-02-10T01:05:34;56655.66;;;-144.48;100.00
68758;BME280;55747;51.998;4.466;2023-02-10T01:08:00;56653.59;;;-144.48;100.00
68758;BME280;55747;51.998;4.466;2023-02-10T01:10:25;56643.25;;;-144.48;100.00
68758;BME280;55747;51.998;4.466;2023-02-10T01:12:51;56663.91;;;-144.48;100.00
68758;BME280;55747;51.998;4.466;2023-02-10T01:15:16;56622.56;;;-144.48;100.00
68758;BME280;55747;51.998;4.466;2023-02-10T01:17:42;56628.78;;;-144.48;100.00
68758;BME280;55747;51.998;4.466;2023-02-10T01:20:08;56610.16;;;-144.48;100.00
68758;BME280;55747;51.998;4.466;2023-02-10T01:22:34;56618.44;;;-144.48;100.00
68758;BME280;55747;51.998;4.466;2023-02-10T01:24:59;56620.50;;;-144.48;100.00
68758;BME280;55747;51.998;4.466;2023-02-10T01:27:25;56626.72;;;-144.48;100.00
68758;BME280;55747;51.998;4.466;2023-02-10T01:29:50;56637.03;;;-144.48;100.00
68758;BME280;55747;51.998;4.466;2023-02-10T01:32:15;56610.16;;;-144.48;100.00
68758;BME280;55747;51.998;4.466;2023-02-10T01:34:41;56649.44;;;-144.48;100.00
68758;BME280;55747;51.998;4.466;2023-02-10T01:37:06;56610.16;;;-144.48;100.00
68758;BME280;55747;51.998;4.466;2023-02-10T01:39:31;56626.72;;;-144.48;100.00
68758;BME280;55747;51.998;4.466;2023-02-10T01:41:57;56593.63;;;-144.48;100.00
68758;BME280;55747;51.998;4.466;2023-02-10T01:46:48;56612.22;;;-144.48;100.00
68758;BME280;55747;51.998;4.466;2023-02-10T01:49:16;56608.09;;;-144.48;100.00
68758;BME280;55747;51.998;4.466;2023-02-10T01:51:48;56614.31;;;-144.48;100.00
68758;BME280;55747;51.998;4.466;2023-02-10T01:54:24;56637.03;;;-144.48;100.00
68758;BME280;55747;51.998;4.466;2023-02-10T01:56:52;56632.91;;;-144.48;100.00
68758;BME280;55747;51.998;4.466;2023-02-10T01:59:18;56645.31;;;-144.48;100.00
68758;BME280;55747;51.998;4.466;2023-02-10T02:01:45;56641.19;;;-144.48;100.00
68758;BME280;55747;51.998;4.466;2023-02-10T02:04:11;56626.72;;;-144.48;100.00
68758;BME280;55747;51.998;4.466;2023-02-10T02:06:36;56655.66;;;-144.48;100.00
68758;BME280;55747;51.998;4.466;2023-02-10T02:09:03;56620.50;;;-144.48;100.00
68758;BME280;55747;51.998;4.466;2023-02-10T02:11:46;56637.03;;;-144.48;100.00
68758;BME280;55747;51.998;4.466;2023-02-10T02:23:06;56653.59;;;-144.48;100.00
68758;BME280;55747;51.998;4.466;2023-02-10T02:28:25;56651.50;;;-144.48;100.00
68758;BME280;55747;51.998;4.466;2023-02-10T02:34:03;56583.28;;;-144.48;100.00
68758;BME280;55747;51.998;4.466;2023-02-10T02:36:39;56661.84;;;-144.48;100.00
68758;BME280;55747;51.998;4.466;2023-02-10T02:39:06;56651.50;;;-144.48;100.00
68758;BME280;55747;51.998;4.466;2023-02-10T02:41:34;56620.50;;;-144.48;100.00
68758;BME280;55747;51.998;4.466;2023-02-10T02:44:01;56639.13;;;-144.48;100.00
68758;BME280;55747;51.998;4.466;2023-02-10T02:46:45;56622.56;;;-144.48;100.00
68758;BME280;55747;51.998;4.466;2023-02-10T02:49:38;56585.34;;;-144.48;100.00
68758;BME280;55747;51.998;4.466;2023-02-10T02:52:11;56589.50;;;-144.48;100.00
68758;BME280;55747;51.998;4.466;2023-02-10T02:54:58;56632.91;;;-144.48;100.00
68758;BME280;55747;51.998;4.466;2023-02-10T02:57:55;56639.13;;;-144.48;100.00
68758;BME280;55747;51.998;4.466;2023-02-10T03:00:26;56628.78;;;-144.48;100.00
68758;BME280;55747;51.998;4.466;2023-02-10T03:02:53;56622.56;;;-144.48;100.00
68758;BME280;55747;51.998;4.466;2023-02-10T03:05:20;56676.31;;;-144.48;100.00
68758;BME280;55747;51.998;4.466;2023-02-10T03:07:49;56620.50;;;-144.48;100.00
68758;BME280;55747;51.998;4.466;2023-02-10T03:10:15;56649.44;;;-144.48;100.00
68758;BME280;55747;51.998;4.466;2023-02-10T03:12:40;56614.31;;;-144.48;100.00
68758;BME280;55747;51.998;4.466;2023-02-10T03:15:06;56624.63;;;-144.48;100.00
68758;BME280;55747;51.998;4.466;2023-02-10T03:17:31;56618.44;;;-144.48;100.00
68758;BME280;55747;51.998;4.466;2023-02-10T03:19:56;56614.31;;;-144.48;100.00
68758;BME280;55747;51.998;4.466;2023-02-10T03:22:22;56616.38;;;-144.48;100.00
68758;BME280;55747;51.998;4.466;2023-02-10T03:24:47;56618.44;;;-144.48;100.00
68758;BME280;55747;51.998;4.466;2023-02-10T03:27:12;56626.72;;;-144.48;100.00
68758;BME280;55747;51.998;4.466;2023-02-10T03:29:38;56612.22;;;-144.48;100.00
68758;BME280;55747;51.998;4.466;2023-02-10T03:32:03;56643.25;;;-144.48;100.00
68758;BME280;55747;51.998;4.466;2023-02-10T03:34:30;56637.03;;;-144.48;100.00
68758;BME280;55747;51.998;4.466;2023-02-10T03:36:55;56663.91;;;-144.48;100.00
68758;BME280;55747;51.998;4.466;2023-02-10T03:39:21;56643.25;;;-144.48;100.00
68758;BME280;55747;51.998;4.466;2023-02-10T03:41:46;56630.84;;;-144.48;100.00
68758;BME280;55747;51.998;4.466;2023-02-10T03:44:11;56630.84;;;-144.48;100.00
68758;BME280;55747;51.998;4.466;2023-02-10T03:46:37;56606.03;;;-144.48;100.00
68758;BME280;55747;51.998;4.466;2023-02-10T03:49:03;56637.03;;;-144.48;100.00
68758;BME280;55747;51.998;4.466;2023-02-10T03:51:29;56612.22;;;-144.48;100.00
68758;BME280;55747;51.998;4.466;2023-02-10T03:53:54;56624.63;;;-144.48;100.00
68758;BME280;55747;51.998;4.466;2023-02-10T03:56:19;56647.38;;;-144.48;100.00
68758;BME280;55747;51.998;4.466;2023-02-10T03:58:45;56599.81;;;-144.48;100.00
68758;BME280;55747;51.998;4.466;2023-02-10T04:01:15;56634.97;;;-144.48;100.00
68758;BME280;55747;51.998;4.466;2023-02-10T04:03:41;56618.44;;;-144.48;100.00
68758;BME280;55747;51.998;4.466;2023-02-10T04:06:07;56649.44;;;-144.48;100.00
68758;BME280;55747;51.998;4.466;2023-02-10T04:08:32;56637.03;;;-144.48;100.00
68758;BME280;55747;51.998;4.466;2023-02-10T04:10:58;56639.13;;;-144.48;100.00
68758;BME280;55747;51.998;4.466;2023-02-10T04:13:23;56603.97;;;-144.48;100.00
68758;BME280;55747;51.998;4.466;2023-02-10T04:15:49;56651.50;;;-144.48;100.00
68758;BME280;55747;51.998;4.466;2023-02-10T04:18:14;56630.84;;;-144.48;100.00
68758;BME280;55747;51.998;4.466;2023-02-10T04:20:39;56614.31;;;-144.48;100.00
68758;BME280;55747;51.998;4.466;2023-02-10T04:23:05;56647.38;;;-144.48;100.00
68758;BME280;55747;51.998;4.466;2023-02-10T04:25:30;56649.44;;;-144.48;100.00
68758;BME280;55747;51.998;4.466;2023-02-10T04:27:55;56618.44;;;-144.48;100.00
68758;BME280;55747;51.998;4.466;2023-02-10T04:30:21;56645.31;;;-144.48;100.00
68758;BME280;55747;51.998;4.466;2023-02-10T04:32:46;56639.13;;;-144.48;100.00
68758;BME280;55747;51.998;4.466;2023-02-10T04:35:11;56657.72;;;-144.48;100.00
68758;BME280;55747;51.998;4.466;2023-02-10T04:37:37;56628.78;;;-144.48;100.00
68758;BME280;55747;51.998;4.466;2023-02-10T04:40:03;56649.44;;;-144.48;100.00
68758;BME280;55747;51.998;4.466;2023-02-10T04:42:28;56676.31;;;-144.48;100.00
68758;BME280;55747;51.998;4.466;2023-02-10T04:44:57;56630.84;;;-144.48;100.00
68758;BME280;55747;51.998;4.466;2023-02-10T04:47:25;56655.66;;;-144.48;100.00
68758;BME280;55747;51.998;4.466;2023-02-10T04:49:50;56622.56;;;-144.48;100.00
68758;BME280;55747;51.998;4.466;2023-02-10T04:52:16;56651.50;;;-144.48;100.00
68758;BME280;55747;51.998;4.466;2023-02-10T04:54:41;56666.00;;;-144.48;100.00
68758;BME280;55747;51.998;4.466;2023-02-10T04:57:06;56657.72;;;-144.48;100.00
68758;BME280;55747;51.998;4.466;2023-02-10T04:59:32;56639.13;;;-144.48;100.00
68758;BME280;55747;51.998;4.466;2023-02-10T05:01:57;56647.38;;;-144.48;100.00
68758;BME280;55747;51.998;4.466;2023-02-10T05:04:22;56620.50;;;-144.48;100.00
68758;BME280;55747;51.998;4.466;2023-02-10T05:06:48;56630.84;;;-144.48;100.00
68758;BME280;55747;51.998;4.466;2023-02-10T05:09:13;56637.03;;;-144.48;100.00
68758;BME280;55747;51.998;4.466;2023-02-10T05:11:38;56603.97;;;-144.48;100.00
68758;BME280;55747;51.998;4.466;2023-02-10T05:14:04;56601.91;;;-144.48;100.00
68758;BME280;55747;51.998;4.466;2023-02-10T05:16:30;56630.84;;;-144.48;100.00
68758;BME280;55747;51.998;4.466;2023-02-10T05:18:55;56641.19;;;-144.48;100.00
68758;BME280;55747;51.998;4.466;2023-02-10T05:21:20;56649.44;;;-144.48;100.00
68758;BME280;55747;51.998;4.466;2023-02-10T05:23:46;56641.19;;;-144.48;100.00
68758;BME280;55747;51.998;4.466;2023-02-10T05:26:11;56630.84;;;-144.48;100.00
68758;BME280;55747;51.998;4.466;2023-02-10T05:28:37;56637.03;;;-144.48;100.00
68758;BME280;55747;51.998;4.466;2023-02-10T05:31:02;56663.91;;;-144.48;100.00
68758;BME280;55747;51.998;4.466;2023-02-10T05:33:29;56624.63;;;-144.48;100.00
68758;BME280;55747;51.998;4.466;2023-02-10T05:35:55;56637.03;;;-144.48;100.00
68758;BME280;55747;51.998;4.466;2023-02-10T05:38:20;56628.78;;;-144.48;100.00
68758;BME280;55747;51.998;4.466;2023-02-10T05:40:45;56641.19;;;-144.48;100.00
68758;BME280;55747;51.998;4.466;2023-02-10T05:43:11;56657.72;;;-144.48;100.00
68758;BME280;55747;51.998;4.466;2023-02-10T05:45:36;56624.63;;;-144.48;100.00
68758;BME280;55747;51.998;4.466;2023-02-10T05:48:02;56639.13;;;-144.48;100.00
68758;BME280;55747;51.998;4.466;2023-02-10T05:50:27;56630.84;;;-144.48;100.00
68758;BME280;55747;51.998;4.466;2023-02-10T05:52:52;56639.13;;;-144.48;100.00
68758;BME280;55747;51.998;4.466;2023-02-10T05:55:18;56670.13;;;-144.48;100.00
68758;BME280;55747;51.998;4.466;2023-02-10T05:57:43;56626.72;;;-144.48;100.00
68758;BME280;55747;51.998;4.466;2023-02-10T06:00:09;56670.13;;;-144.48;100.00
68758;BME280;55747;51.998;4.466;2023-02-10T06:02:34;56610.16;;;-144.48;100.00
68758;BME280;55747;51.998;4.466;2023-02-10T06:05:00;56632.91;;;-144.48;100.00
68758;BME280;55747;51.998;4.466;2023-02-10T06:07:26;56610.16;;;-144.48;100.00
68758;BME280;55747;51.998;4.466;2023-02-10T06:09:52;56645.31;;;-144.48;100.00
68758;BME280;55747;51.998;4.466;2023-02-10T06:12:17;56610.16;;;-144.48;100.00
68758;BME280;55747;51.998;4.466;2023-02-10T06:14:42;56614.31;;;-144.48;100.00
68758;BME280;55747;51.998;4.466;2023-02-10T06:17:08;56672.19;;;-144.48;100.00
68758;BME280;55747;51.998;4.466;2023-02-10T06:19:38;56634.97;;;-144.48;100.00
68758;BME280;55747;51.998;4.466;2023-02-10T06:22:04;56641.19;;;-144.48;100.00
68758;BME280;55747;51.998;4.466;2023-02-10T06:24:30;56630.84;;;-144.48;100.00
68758;BME280;55747;51.998;4.466;2023-02-10T06:26:55;56655.66;;;-144.48;100.00
68758;BME280;55747;51.998;4.466;2023-02-10T06:29:21;56624.63;;;-144.48;100.00
68758;BME280;55747;51.998;4.466;2023-02-10T06:31:46;56668.06;;;-144.48;100.00
68758;BME280;55747;51.998;4.466;2023-02-10T06:34:12;56632.91;;;-144.48;100.00
68758;BME280;55747;51.998;4.466;2023-02-10T06:36:37;56626.72;;;-144.48;100.00
68758;BME280;55747;51.998;4.466;2023-02-10T06:39:02;56620.50;;;-144.48;100.00
68758;BME280;55747;51.998;4.466;2023-02-10T06:41:28;56670.13;;;-144.48;100.00
68758;BME280;55747;51.998;4.466;2023-02-10T06:43:53;56637.03;;;-144.48;100.00
68758;BME280;55747;51.998;4.466;2023-02-10T06:46:19;56632.91;;;-144.48;100.00
68758;BME280;55747;51.998;4.466;2023-02-10T06:48:44;56630.84;;;-144.48;100.00
68758;BME280;55747;51.998;4.466;2023-02-10T06:51:09;56612.22;;;-144.48;100.00
68758;BME280;55747;51.998;4.466;2023-02-10T06:53:35;56657.72;;;-144.48;100.00
68758;BME280;55747;51.998;4.466;2023-02-10T06:56:04;56645.31;;;-144.48;100.00
68758;BME280;55747;51.998;4.466;2023-02-10T06:58:29;56632.91;;;-144.48;100.00
68758;BME280;55747;51.998;4.466;2023-02-10T07:00:55;56624.63;;;-144.48;100.00
68758;BME280;55747;51.998;4.466;2023-02-10T07:03:20;56639.13;;;-144.48;100.00
68758;BME280;55747;51.998;4.466;2023-02-10T07:05:50;56637.03;;;-144.48;100.00
68758;BME280;55747;51.998;4.466;2023-02-10T07:08:18;56653.59;;;-144.48;100.00
68758;BME280;55747;51.998;4.466;2023-02-10T07:10:44;56628.78;;;-144.48;100.00
68758;BME280;55747;51.998;4.466;2023-02-10T07:13:09;56672.19;;;-144.48;100.00
68758;BME280;55747;51.998;4.466;2023-02-10T07:15:37;56643.25;;;-144.48;100.00
68758;BME280;55747;51.998;4.466;2023-02-10T07:18:03;56653.59;;;-144.48;100.00
68758;BME280;55747;51.998;4.466;2023-02-10T07:20:31;56632.91;;;-144.48;100.00
68758;BME280;55747;51.998;4.466;2023-02-10T07:22:56;56637.03;;;-144.48;100.00
68758;BME280;55747;51.998;4.466;2023-02-10T07:25:22;56603.97;;;-144.48;100.00
68758;BME280;55747;51.998;4.466;2023-02-10T07:27:47;56603.97;;;-144.48;100.00
68758;BME280;55747;51.998;4.466;2023-02-10T07:30:13;56606.03;;;-144.48;100.00
68758;BME280;55747;51.998;4.466;2023-02-10T07:32:38;56601.91;;;-144.48;100.00
68758;BME280;55747;51.998;4.466;2023-02-10T07:35:06;56659.78;;;-144.48;100.00
68758;BME280;55747;51.998;4.466;2023-02-10T07:37:34;56651.50;;;-144.48;100.00
68758;BME280;55747;51.998;4.466;2023-02-10T07:40:03;56570.88;;;-144.48;100.00
68758;BME280;55747;51.998;4.466;2023-02-10T07:42:29;56659.78;;;-144.48;100.00
68758;BME280;55747;51.998;4.466;2023-02-10T07:44:55;56655.66;;;-144.48;100.00
68758;BME280;55747;51.998;4.466;2023-02-10T07:47:23;56637.03;;;-144.48;100.00
68758;BME280;55747;51.998;4.466;2023-02-10T07:49:50;56628.78;;;-144.48;100.00
68758;BME280;55747;51.998;4.466;2023-02-10T07:52:23;56624.63;;;-144.48;100.00
68758;BME280;55747;51.998;4.466;2023-02-10T07:55:09;56620.50;;;-144.48;100.00
68758;BME280;55747;51.998;4.466;2023-02-10T07:57:37;56663.91;;;-144.48;100.00
68758;BME280;55747;51.998;4.466;2023-02-10T08:00:07;56639.13;;;-144.48;100.00
68758;BME280;55747;51.998;4.466;2023-02-10T08:02:41;56632.91;;;-144.48;100.00
68758;BME280;55747;51.998;4.466;2023-02-10T08:05:25;56651.50;;;-144.48;100.00
68758;BME280;55747;51.998;4.466;2023-02-10T08:08:08;56637.03;;;-144.48;100.00
68758;BME280;55747;51.998;4.466;2023-02-10T08:10:47;56603.97;;;-144.48;100.00
68758;BME280;55747;51.998;4.466;2023-02-10T08:13:16;56666.00;;;-144.48;100.00
68758;BME280;55747;51.998;4.466;2023-02-10T08:15:43;56643.25;;;-144.48;100.00
68758;BME280;55747;51.998;4.466;2023-02-10T08:18:14;56620.50;;;-144.48;100.00
68758;BME280;55747;51.998;4.466;2023-02-10T08:20:39;56639.13;;;-144.48;100.00
68758;BME280;55747;51.998;4.466;2023-02-10T08:23:14;56655.66;;;-144.48;100.00
68758;BME280;55747;51.998;4.466;2023-02-10T08:25:43;56688.72;;;-144.48;100.00
68758;BME280;55747;51.998;4.466;2023-02-10T08:28:11;56647.38;;;-144.48;100.00
68758;BME280;55747;51.998;4.466;2023-02-10T08:30:36;56637.03;;;-144.48;100.00
68758;BME280;55747;51.998;4.466;2023-02-10T08:33:02;56653.59;;;-144.48;100.00
68758;BME280;55747;51.998;4.466;2023-02-10T08:35:28;56655.66;;;-144.48;100.00
68758;BME280;55747;51.998;4.466;2023-02-10T08:37:53;56668.06;;;-144.48;100.00
68758;BME280;55747;51.998;4.466;2023-02-10T08:40:24;56647.38;;;-144.48;100.00
68758;BME280;55747;51.998;4.466;2023-02-10T08:42:55;56651.50;;;-144.48;100.00
68758;BME280;55747;51.998;4.466;2023-02-10T08:45:20;56626.72;;;-144.48;100.00
68758;BME280;55747;51.998;4.466;2023-02-10T08:47:46;56674.25;;;-144.48;100.00
68758;BME280;55747;51.998;4.466;2023-02-10T08:50:15;56622.56;;;-144.48;100.00
68758;BME280;55747;51.998;4.466;2023-02-10T08:52:40;56641.19;;;-144.48;100.00
68758;BME280;55747;51.998;4.466;2023-02-10T08:55:06;56610.16;;;-144.48;100.00
68758;BME280;55747;51.998;4.466;2023-02-10T08:57:32;56649.44;;;-144.48;100.00
68758;BME280;55747;51.998;4.466;2023-02-10T08:59:58;56595.69;;;-144.48;100.00
68758;BME280;55747;51.998;4.466;2023-02-10T09:02:23;56666.00;;;-144.48;100.00
68758;BME280;55747;51.998;4.466;2023-02-10T09:04:49;56649.44;;;-144.48;100.00
68758;BME280;55747;51.998;4.466;2023-02-10T09:07:14;56643.25;;;-144.48;100.00
68758;BME280;55747;51.998;4.466;2023-02-10T09:09:43;56630.84;;;-144.48;100.00
68758;BME280;55747;51.998;4.466;2023-02-10T09:12:10;56641.19;;;-144.48;100.00
68758;BME280;55747;51.998;4.466;2023-02-10T09:14:38;56670.13;;;-144.48;100.00
68758;BME280;55747;51.998;4.466;2023-02-10T09:17:05;56661.84;;;-144.48;100.00
68758;BME280;55747;51.998;4.466;2023-02-10T09:19:36;56641.19;;;-144.48;100.00
68758;BME280;55747;51.998;4.466;2023-02-10T09:22:05;56661.84;;;-144.48;100.00
68758;BME280;55747;51.998;4.466;2023-02-10T09:24:31;56663.91;;;-144.48;100.00
68758;BME280;55747;51.998;4.466;2023-02-10T09:26:57;56651.50;;;-144.48;100.00
68758;BME280;55747;51.998;4.466;2023-02-10T09:33:12;56647.38;;;-144.48;100.00
68758;BME280;55747;51.998;4.466;2023-02-10T09:35:37;56641.19;;;-144.48;100.00
68758;BME280;55747;51.998;4.466;2023-02-10T09:38:02;56684.59;;;-144.48;100.00
68758;BME280;55747;51.998;4.466;2023-02-10T09:40:32;56674.25;;;-144.48;100.00
68758;BME280;55747;51.998;4.466;2023-02-10T09:44:01;56639.13;;;-144.48;99.31
68758;BME280;55747;51.998;4.466;2023-02-10T09:46:23;56630.84;;;-144.48;91.10
68758;BME280;55747;51.998;4.466;2023-02-10T09:54:17;56639.13;;;-144.48;79.98
68758;BME280;55747;51.998;4.466;2023-02-10T09:56:44;56663.91;;;-144.48;82.56
68758;BME280;55747;51.998;4.466;2023-02-10T09:59:21;56649.44;;;-144.48;84.76
68758;BME280;55747;51.998;4.466;2023-02-10T10:01:54;56657.72;;;-144.48;79.65
68758;BME280;55747;51.998;4.466;2023-02-10T10:04:22;56670.13;;;-144.48;80.84
68758;BME280;55747;51.998;4.466;2023-02-10T10:06:50;56668.06;;;-144.48;82.24
68758;BME280;55747;51.998;4.466;2023-02-10T10:09:42;56655.66;;;-144.48;80.02
68758;BME280;55747;51.998;4.466;2023-02-10T10:12:18;56670.13;;;-144.48;79.88
68758;BME280;55747;51.998;4.466;2023-02-10T10:14:53;56624.63;;;-144.48;79.15
68758;BME280;55747;51.998;4.466;2023-02-10T10:20:41;56668.06;;;-144.48;78.03
68758;BME280;55747;51.998;4.466;2023-02-10T10:57:08;56666.00;;;-144.48;71.75
68758;BME280;55747;51.998;4.466;2023-02-10T11:04:13;56659.78;;;-144.48;74.78
68758;BME280;55747;51.998;4.466;2023-02-10T11:06:51;56616.38;;;-144.48;71.42
68758;BME280;55747;51.998;4.466;2023-02-10T11:41:53;56634.97;;;-144.48;69.78
68758;BME280;55747;51.998;4.466;2023-02-10T11:44:31;56655.66;;;-144.48;67.58
68758;BME280;55747;51.998;4.466;2023-02-10T11:47:03;56612.22;;;-144.48;66.58
68758;BME280;55747;51.998;4.466;2023-02-10T11:49:36;56622.56;;;-144.48;63.71
68758;BME280;55747;51.998;4.466;2023-02-10T11:52:07;56647.38;;;-144.48;64.92
68758;BME280;55747;51.998;4.466;2023-02-10T11:54:38;56618.44;;;-144.48;64.78
68758;BME280;55747;51.998;4.466;2023-02-10T12:00:27;56587.41;;;-144.48;68.14
68758;BME280;55747;51.998;4.466;2023-02-10T12:05:55;56614.31;;;-144.48;63.57
68758;BME280;55747;51.998;4.466;2023-02-10T12:22:35;56597.75;;;-144.48;61.69
68758;BME280;55747;51.998;4.466;2023-02-10T12:33:35;56612.22;;;-144.48;59.11
68758;BME280;55747;51.998;4.466;2023-02-10T12:36:28;56599.81;;;-144.48;59.05
68758;BME280;55747;51.998;4.466;2023-02-10T12:39:14;56628.78;;;-144.48;57.83
68758;BME280;55747;51.998;4.466;2023-02-10T12:42:03;56599.81;;;-144.48;57.85
68758;BME280;55747;51.998;4.466;2023-02-10T12:45:00;56632.91;;;-144.48;60.32
68758;BME280;55747;51.998;4.466;2023-02-10T12:47:48;56603.97;;;-144.48;63.38
68758;BME280;55747;51.998;4.466;2023-02-10T12:53:04;56606.03;;;-144.48;60.74
68758;BME280;55747;51.998;4.466;2023-02-10T12:58:17;56637.03;;;-144.48;61.06
68758;BME280;55747;51.998;4.466;2023-02-10T13:00:50;56624.63;;;-144.48;58.36
68758;BME280;55747;51.998;4.466;2023-02-10T13:03:47;56610.16;;;-144.48;60.04
68758;BME280;55747;51.998;4.466;2023-02-10T13:09:15;56616.38;;;-144.48;60.34
68758;BME280;55747;51.998;4.466;2023-02-10T13:14:34;56595.69;;;-144.48;58.26
68758;BME280;55747;51.998;4.466;2023-02-10T13:17:01;56593.63;;;-144.48;59.15
68758;BME280;55747;51.998;4.466;2023-02-10T13:22:21;56595.69;;;-144.48;59.94
68758;BME280;55747;51.998;4.466;2023-02-10T13:25:07;56560.53;;;-144.48;60.45
68758;BME280;55747;51.998;4.466;2023-02-10T13:27:58;56597.75;;;-144.48;60.41
68758;BME280;55747;51.998;4.466;2023-02-10T13:31:06;56599.81;;;-144.48;59.53
68758;BME280;55747;51.998;4.466;2023-02-10T13:33:40;56624.63;;;-144.48;59.20
68758;BME280;55747;51.998;4.466;2023-02-10T13:36:15;56599.81;;;-144.48;60.82
68758;BME280;55747;51.998;4.466;2023-02-10T13:38:46;56608.09;;;-144.48;60.25
68758;BME280;55747;51.998;4.466;2023-02-10T13:41:45;56639.13;;;-144.48;60.00
68758;BME280;55747;51.998;4.466;2023-02-10T13:44:22;56568.81;;;-144.48;60.76
68758;BME280;55747;51.998;4.466;2023-02-10T13:49:50;56630.84;;;-144.48;64.69
68758;BME280;55747;51.998;4.466;2023-02-10T13:52:27;56610.16;;;-144.48;64.07
68758;BME280;55747;51.998;4.466;2023-02-10T13:54:58;56606.03;;;-144.48;64.25
68758;BME280;55747;51.998;4.466;2023-02-10T13:57:30;56585.34;;;-144.48;64.06
68758;BME280;55747;51.998;4.466;2023-02-10T14:02:42;56622.56;;;-144.48;62.85
68758;BME280;55747;51.998;4.466;2023-02-10T14:05:29;56564.69;;;-144.48;63.80
68758;BME280;55747;51.998;4.466;2023-02-10T14:07:55;56599.81;;;-144.48;64.34
68758;BME280;55747;51.998;4.466;2023-02-10T14:12:57;56608.09;;;-144.48;65.89
68758;BME280;55747;51.998;4.466;2023-02-10T14:15:30;56585.34;;;-144.48;67.78
68758;BME280;55747;51.998;4.466;2023-02-10T14:18:01;56614.31;;;-144.48;70.85
68758;BME280;55747;51.998;4.466;2023-02-10T14:20:31;56645.31;;;-144.48;72.42
68758;BME280;55747;51.998;4.466;2023-02-10T14:22:58;56620.50;;;-144.48;72.50
68758;BME280;55747;51.998;4.466;2023-02-10T14:25:39;56630.84;;;-144.48;72.37
68758;BME280;55747;51.998;4.466;2023-02-10T14:28:17;56603.97;;;-144.48;73.16
68758;BME280;55747;51.998;4.466;2023-02-10T14:30:45;56603.97;;;-144.48;73.44
68758;BME280;55747;51.998;4.466;2023-02-10T14:35:52;56637.03;;;-144.48;72.00
68758;BME280;55747;51.998;4.466;2023-02-10T14:38:36;56603.97;;;-144.48;71.56
68758;BME280;55747;51.998;4.466;2023-02-10T14:41:02;56614.31;;;-144.48;69.52
68758;BME280;55747;51.998;4.466;2023-02-10T14:43:30;56628.78;;;-144.48;68.38
68758;BME280;55747;51.998;4.466;2023-02-10T14:45:58;56581.22;;;-144.48;68.59
68758;BME280;55747;51.998;4.466;2023-02-10T14:48:24;56577.09;;;-144.48;70.35
68758;BME280;55747;51.998;4.466;2023-02-10T14:51:01;56570.88;;;-144.48;71.41
68758;BME280;55747;51.998;4.466;2023-02-10T14:53:27;56585.34;;;-144.48;73.21
68758;BME280;55747;51.998;4.466;2023-02-10T14:55:55;56610.16;;;-144.48;74.41
68758;BME280;55747;51.998;4.466;2023-02-10T14:58:21;56606.03;;;-144.48;75.28
68758;BME280;55747;51.998;4.466;2023-02-10T15:03:52;56614.31;;;-144.48;78.61
68758;BME280;55747;51.998;4.466;2023-02-10T15:06:19;56597.75;;;-144.48;79.56
68758;BME280;55747;51.998;4.466;2023-02-10T15:11:45;56601.91;;;-144.48;82.17
68758;BME280;55747;51.998;4.466;2023-02-10T15:14:34;56626.72;;;-144.48;82.27
68758;BME280;55747;51.998;4.466;2023-02-10T15:17:05;56591.56;;;-144.48;82.78
68758;BME280;55747;51.998;4.466;2023-02-10T15:19:31;56581.22;;;-144.48;83.22
68758;BME280;55747;51.998;4.466;2023-02-10T15:21:56;56595.69;;;-144.48;83.63
68758;BME280;55747;51.998;4.466;2023-02-10T15:24:39;56606.03;;;-144.48;83.07